Aérodrome :
LOGIN :

S'inscrire | Disclaimer

   EN    FR    IT 

 










Légende :    VFR   VFR Marginal   IFR   IFR Intensif   IFR Très Intensif
Visi : 
Plafond : 
>= 8 km
>= 3000ft
5 à 8 km
1000 à 3000 ft
1500m à 5 km
500 à 1000 ft
800 à 1500m
200 à 500 ft
< 800m
< 200 ft
Symboles :   Orages  Brouillard  Fortes neiges  Fortes précipitations  Vent > 20 kt
SIGMETs :   Divers  Orages  Givrage  Turbulence  Onde Orograph.  Cendres Volcan.







- Altitude de l'aérodrome : 788 ft
- Code IATA : DCM
- Voir les cartes d'approche


LFCK - Castres-Mazamet

DERNIER METAR :
  • 220000Z AUTO 31011KT 9999 FEW013 OVC034 03/00 Q1021

METARs EXPIRÉS :
  • 212330Z AUTO 30013KT 9999 BKN012 BKN019 OVC035 03/01 Q1021
  • 212300Z AUTO 31012KT 9999 OVC012 03/01 Q1021
  • 212230Z AUTO 31015KT 9999 OVC014 03/01 Q1021
  • 212200Z AUTO 30015KT 9999 BKN012 OVC017 03/01 Q1021 NOSIG
  • 212130Z AUTO /////KT 9999 OVC012 03/01 Q1021
  • 212100Z AUTO 29013KT 9999 OVC012 03/01 Q1021 NOSIG

TAF TAF LFCK
Valide du 21 à 18h jusqu'au 22 à 03h UTC


211700Z 2118/2203 30010KT 9999 SCT020 BKN030
PROB40
TEMPO 2118/2203 8000 -RA BKN014
Pas de NOTAMs connus pour ce terrain.



MET'MAP, la Météo Aéronautique d'un coup d'oeil ! - Copyright ORBIFLY Décembre 2007 - Disclaimer

ORBIFLY MET'MAP TEAM :

Programmation & Développement : Alexandra Zaïnal
Conception & Développement : Baudouin d'Aumeries
Co-Programmation & Développement : Marc-Olivier Méhu
Soutien technique & logistique : Manuel Goepfert

Contact : metmap@orbifly.com




SOURCES & CREDITS :

   NOAA